Time;durP1;ratioP1;P1;durP2;ratioP2;P2;SDS_P1;SDS_P2;PMS_P1;PMS_P2;Temp;Humidity;BMP_temperature;BMP_pressure;BME280_temperature;BME280_humidity;BME280_pressure;Samples;Min_cycle;Max_cycle;Signal;HPM_P1;HPM_P2
2023/04/09 00:00:36;;;;;;;;;;;;;;;16.19;51.97;102850.41;2067594;28;19929;-54
2023/04/09 00:01:37;;;;;;;;;;;;;;;16.20;51.93;102846.56;2072665;28;19929;-57
2023/04/09 00:02:40;;;;;;;;;;;;;;;16.21;52.12;102850.06;2071348;28;19929;-54
2023/04/09 00:03:42;;;;;;;;;;;;;;;16.20;52.24;102852.03;2069278;28;20325;-53
2023/04/09 00:04:45;;;;;;;;;;;;;;;16.20;51.97;102852.03;2067733;28;20428;-54
2023/04/09 00:05:47;;;;;;;;;;;;;;;16.21;52.05;102847.34;2073191;28;19929;-55
2023/04/09 00:06:51;;;;;;;;;;;;;;;16.20;52.02;102837.59;2072804;28;19936;-55
2023/04/09 00:07:52;;;;;;;;;;;;;;;16.20;52.15;102843.84;2070183;28;19934;-55
2023/04/09 00:08:55;;;;;;;;;;;;;;;16.20;52.03;102848.50;2068306;28;19980;-53
2023/04/09 00:09:56;;;;;;;;;;;;;;;16.20;51.91;102849.31;2068707;28;19960;-55
2023/04/09 00:10:59;;;;;;;;;;;;;;;16.20;52.30;102849.31;2070892;28;20441;-55
2023/04/09 00:12:02;;;;;;;;;;;;;;;16.20;52.11;102843.84;2066583;28;19929;-54
2023/04/09 00:13:04;;;;;;;;;;;;;;;16.20;51.91;102841.13;2073667;28;20080;-54
2023/04/09 00:14:06;;;;;;;;;;;;;;;16.21;52.14;102850.06;2069275;28;20289;-54
2023/04/09 00:15:09;;;;;;;;;;;;;;;16.21;52.25;102853.63;2069196;28;19984;-54
2023/04/09 00:16:15;;;;;;;;;;;;;;;16.21;52.18;102848.16;2069719;28;20449;-54
2023/04/09 00:17:18;;;;;;;;;;;;;;;16.21;52.00;102852.81;2071865;28;19936;-53
2023/04/09 00:18:20;;;;;;;;;;;;;;;16.20;51.91;102837.59;2073680;28;19929;-56
2023/04/09 00:19:22;;;;;;;;;;;;;;;16.21;52.13;102850.88;2063398;28;19935;-52
2023/04/09 00:20:24;;;;;;;;;;;;;;;16.21;52.05;102850.88;2072865;28;19983;-53
2023/04/09 00:21:27;;;;;;;;;;;;;;;16.21;52.13;102850.88;2076113;28;20023;-55
2023/04/09 00:22:30;;;;;;;;;;;;;;;16.21;52.10;102848.16;2073992;28;19929;-54
2023/04/09 00:23:32;;;;;;;;;;;;;;;16.22;52.18;102851.69;2073528;28;19929;-54
2023/04/09 00:24:34;;;;;;;;;;;;;;;16.20;52.16;102841.13;2072509;28;19983;-58
2023/04/09 00:25:37;;;;;;;;;;;;;;;16.22;51.99;102852.47;2073220;28;19930;-54
2023/04/09 00:26:38;;;;;;;;;;;;;;;16.21;52.02;102850.88;2075542;28;20404;-55
2023/04/09 00:27:41;;;;;;;;;;;;;;;16.21;51.90;102845.44;2077418;28;19929;-55
2023/04/09 00:28:43;;;;;;;;;;;;;;;16.21;51.93;102842.72;2070569;28;20510;-56
2023/04/09 00:29:46;;;;;;;;;;;;;;;16.21;52.20;102840.00;2074995;28;20512;-55
2023/04/09 00:30:47;;;;;;;;;;;;;;;16.21;51.87;102840.00;2065833;28;19930;-55
2023/04/09 00:31:50;;;;;;;;;;;;;;;16.21;51.99;102845.44;2064891;28;19984;-54
2023/04/09 00:32:52;;;;;;;;;;;;;;;16.22;52.10;102848.97;2072867;28;20362;-56
2023/04/09 00:33:55;;;;;;;;;;;;;;;16.21;51.93;102845.44;2074125;28;20425;-54
2023/04/09 00:34:56;;;;;;;;;;;;;;;16.21;51.96;102848.16;2074288;28;19925;-56
2023/04/09 00:35:59;;;;;;;;;;;;;;;16.21;52.13;102840.00;2073051;28;19983;-54
2023/04/09 00:37:01;;;;;;;;;;;;;;;16.22;52.22;102843.53;2072540;28;20384;-56
2023/04/09 00:38:05;;;;;;;;;;;;;;;16.21;52.16;102840.00;2069647;28;19933;-55
2023/04/09 00:39:06;;;;;;;;;;;;;;;16.22;52.13;102838.84;2072608;28;19926;-55
2023/04/09 00:40:09;;;;;;;;;;;;;;;16.22;52.07;102840.78;2073133;28;20016;-55
2023/04/09 00:41:11;;;;;;;;;;;;;;;16.22;52.05;102843.53;2072767;28;20039;-55
2023/04/09 00:42:15;;;;;;;;;;;;;;;16.22;51.90;102838.06;2073995;28;20416;-56
2023/04/09 00:43:17;;;;;;;;;;;;;;;16.21;52.15;102834.53;2064849;28;19925;-55
2023/04/09 00:44:19;;;;;;;;;;;;;;;16.22;51.90;102844.28;2064084;28;19929;-55
2023/04/09 00:45:21;;;;;;;;;;;;;;;16.22;51.91;102829.88;2064112;28;19992;-55
2023/04/09 00:46:24;;;;;;;;;;;;;;;16.20;52.05;102830.22;2063367;28;20020;-55
2023/04/09 00:47:27;;;;;;;;;;;;;;;16.22;51.99;102830.66;2071410;28;19930;-55
2023/04/09 00:48:30;;;;;;;;;;;;;;;16.22;52.14;102830.66;2072309;28;19933;-56
2023/04/09 00:49:32;;;;;;;;;;;;;;;16.21;52.11;102831.81;2072199;28;19925;-55
2023/04/09 00:50:35;;;;;;;;;;;;;;;16.21;52.12;102826.34;2073503;28;20415;-55
2023/04/09 00:51:37;;;;;;;;;;;;;;;16.21;51.94;102826.34;2063992;28;20393;-55
2023/04/09 00:52:40;;;;;;;;;;;;;;;16.21;52.21;102826.34;2064039;28;19965;-56
2023/04/09 00:53:43;;;;;;;;;;;;;;;16.22;52.11;102829.88;2072737;28;20365;-54
2023/04/09 00:54:46;;;;;;;;;;;;;;;16.22;52.16;102825.22;2075301;28;19960;-54
2023/04/09 00:55:47;;;;;;;;;;;;;;;16.21;51.96;102823.63;2074083;28;19983;-54
2023/04/09 00:56:51;;;;;;;;;;;;;;;16.21;51.76;102829.09;2072873;28;19947;-56
2023/04/09 00:57:52;;;;;;;;;;;;;;;16.23;51.90;102831.47;2071236;28;19930;-56
2023/04/09 00:58:55;;;;;;;;;;;;;;;16.21;51.92;102829.09;2072027;28;19936;-55
2023/04/09 00:59:57;;;;;;;;;;;;;;;16.21;52.00;102818.19;2073894;28;19925;-54
2023/04/09 01:00:59;;;;;;;;;;;;;;;16.21;52.02;102823.63;2073990;28;19933;-55
2023/04/09 01:02:01;;;;;;;;;;;;;;;16.21;52.16;102822.81;2069450;28;19941;-55
2023/04/09 01:03:05;;;;;;;;;;;;;;;16.22;51.93;102822.50;2072571;28;19976;-55
2023/04/09 01:04:07;;;;;;;;;;;;;;;16.21;52.05;102818.19;2071379;28;19925;-56
2023/04/09 01:05:10;;;;;;;;;;;;;;;16.21;52.14;102812.72;2073561;28;19929;-55
2023/04/09 01:06:16;;;;;;;;;;;;;;;16.22;52.02;102822.50;2074266;28;19925;-55
2023/04/09 01:07:24;;;;;;;;;;;;;;;16.23;52.13;102813.22;2062453;28;20017;-55
2023/04/09 01:08:30;;;;;;;;;;;;;;;16.21;51.95;102815.47;2063934;28;19930;-54
2023/04/09 01:09:36;;;;;;;;;;;;;;;16.21;52.05;102818.19;2071651;28;19934;-56
2023/04/09 01:10:41;;;;;;;;;;;;;;;16.22;51.93;102813.53;2065655;28;19929;-60
2023/04/09 01:11:49;;;;;;;;;;;;;;;16.21;52.01;102807.28;2065913;28;19929;-55
2023/04/09 01:12:59;;;;;;;;;;;;;;;16.22;51.94;102803.41;2072975;28;20023;-56
2023/04/09 01:14:05;;;;;;;;;;;;;;;16.21;51.94;102807.28;2066527;28;19929;-56
2023/04/09 01:15:09;;;;;;;;;;;;;;;16.21;51.99;102812.72;2063336;28;19929;-56
2023/04/09 01:16:15;;;;;;;;;;;;;;;16.21;52.16;102804.56;2063393;28;19930;-56
2023/04/09 01:17:20;;;;;;;;;;;;;;;16.22;52.11;102813.53;2072598;28;20079;-56
2023/04/09 01:18:28;;;;;;;;;;;;;;;16.22;52.32;102819.00;2068806;28;19988;-54
2023/04/09 01:19:36;;;;;;;;;;;;;;;16.22;52.20;102813.53;2067957;28;19933;-55
2023/04/09 01:20:40;;;;;;;;;;;;;;;16.22;52.04;102813.53;2059790;28;20438;-55
2023/04/09 01:21:43;;;;;;;;;;;;;;;16.22;52.15;102814.31;2049763;28;19930;-55
2023/04/09 01:22:49;;;;;;;;;;;;;;;16.22;52.20;102814.31;2063840;28;19934;-54
2023/04/09 01:23:56;;;;;;;;;;;;;;;16.22;52.32;102802.63;2063452;28;19930;-56
2023/04/09 01:25:09;;;;;;;;;;;;;;;16.22;52.06;102805.34;2057218;28;19926;-55
2023/04/09 01:26:21;;;;;;;;;;;;;;;16.21;51.94;102807.28;2065518;28;19930;-55
2023/04/09 01:27:33;;;;;;;;;;;;;;;16.22;52.17;102803.41;2063298;28;19953;-54
2023/04/09 01:28:42;;;;;;;;;;;;;;;16.22;52.22;102819.75;2047617;28;20436;-56
2023/04/09 01:29:46;;;;;;;;;;;;;;;16.22;52.02;102814.31;2048934;28;20030;-55
2023/04/09 01:30:49;;;;;;;;;;;;;;;16.22;51.99;102819.75;2063385;28;19949;-58
2023/04/09 01:31:53;;;;;;;;;;;;;;;16.23;52.15;102817.84;2070167;28;19925;-55
2023/04/09 01:32:57;;;;;;;;;;;;;;;16.22;52.17;102816.25;2068939;28;19965;-56
2023/04/09 01:34:00;;;;;;;;;;;;;;;16.22;52.27;102810.81;2071870;28;20012;-55
2023/04/09 01:35:03;;;;;;;;;;;;;;;16.22;51.92;102814.31;2068644;28;19936;-54
2023/04/09 01:36:06;;;;;;;;;;;;;;;16.22;51.95;102808.09;2066484;28;19941;-56
2023/04/09 01:37:08;;;;;;;;;;;;;;;16.22;52.05;102817.03;2063388;28;20286;-56
2023/04/09 01:38:11;;;;;;;;;;;;;;;16.21;52.05;102807.28;2064458;28;19929;-54
2023/04/09 01:39:13;;;;;;;;;;;;;;;16.23;51.98;102812.41;2062962;28;19965;-54
2023/04/09 01:40:16;;;;;;;;;;;;;;;16.22;52.19;102819.75;2064454;28;19941;-54
2023/04/09 01:41:20;;;;;;;;;;;;;;;16.22;52.00;102808.09;2071722;28;19936;-55
2023/04/09 01:42:23;;;;;;;;;;;;;;;16.23;52.11;102805.03;2068775;28;19952;-55
2023/04/09 01:43:26;;;;;;;;;;;;;;;16.22;52.17;102817.03;2070624;28;19941;-55
2023/04/09 01:44:30;;;;;;;;;;;;;;;16.22;52.00;102808.88;2059600;28;20399;-55
2023/04/09 01:45:32;;;;;;;;;;;;;;;16.22;51.99;102806.13;2061759;28;19926;-55
2023/04/09 01:46:37;;;;;;;;;;;;;;;16.22;52.15;102808.88;2066528;28;19929;-56
2023/04/09 01:47:39;;;;;;;;;;;;;;;16.24;52.26;102811.25;2072195;28;20399;-56
2023/04/09 01:48:42;;;;;;;;;;;;;;;16.23;52.15;102820.56;2063145;28;19987;-56
2023/04/09 01:49:44;;;;;;;;;;;;;;;16.22;51.99;102825.22;2063312;28;19925;-56
2023/04/09 01:50:47;;;;;;;;;;;;;;;16.23;52.13;102821.38;2071534;28;19929;-55
2023/04/09 01:51:49;;;;;;;;;;;;;;;16.24;52.02;102813.97;2065329;28;19926;-55
2023/04/09 01:52:52;;;;;;;;;;;;;;;16.24;52.25;102808.53;2069414;28;19969;-55
2023/04/09 01:53:55;;;;;;;;;;;;;;;16.23;52.24;102810.47;2066441;28;20342;-56
2023/04/09 01:54:57;;;;;;;;;;;;;;;16.23;51.95;102810.47;2065880;28;19930;-55
2023/04/09 01:56:00;;;;;;;;;;;;;;;16.22;51.93;102808.88;2067862;28;20024;-55
2023/04/09 01:57:02;;;;;;;;;;;;;;;16.23;52.18;102815.94;2071402;28;20012;-55
2023/04/09 01:58:05;;;;;;;;;;;;;;;16.23;52.29;102802.31;2070758;28;19925;-55
2023/04/09 01:59:06;;;;;;;;;;;;;;;16.23;52.10;102812.41;2068923;28;20304;-59
2023/04/09 02:00:11;;;;;;;;;;;;;;;16.23;52.11;102815.94;2062867;28;19965;-56
2023/04/09 02:01:22;;;;;;;;;;;;;;;16.24;52.22;102811.25;2060249;28;19930;-54
2023/04/09 02:02:27;;;;;;;;;;;;;;;16.24;52.02;102812.06;2066652;28;19941;-55
2023/04/09 02:03:33;;;;;;;;;;;;;;;16.24;52.02;102808.53;2067607;28;19929;-55
2023/04/09 02:04:38;;;;;;;;;;;;;;;16.24;52.25;102811.25;2062461;28;20420;-55
2023/04/09 02:05:44;;;;;;;;;;;;;;;16.22;52.06;102808.88;2062310;28;19929;-55
2023/04/09 02:06:50;;;;;;;;;;;;;;;16.23;52.11;102807.75;2070443;28;20004;-55
2023/04/09 02:07:55;;;;;;;;;;;;;;;16.23;52.15;102805.03;2069024;28;19936;-56
2023/04/09 02:08:59;;;;;;;;;;;;;;;16.23;52.02;102805.03;2069238;28;19969;-56
2023/04/09 02:10:02;;;;;;;;;;;;;;;16.23;52.03;102799.56;2061757;28;19934;-54
2023/04/09 02:11:05;;;;;;;;;;;;;;;16.22;52.27;102795.25;2061723;28;19933;-55
2023/04/09 02:12:10;;;;;;;;;;;;;;;16.23;52.04;102804.22;2069691;28;19929;-55
2023/04/09 02:13:14;;;;;;;;;;;;;;;16.23;52.10;102804.22;2069817;28;19929;-55
2023/04/09 02:14:18;;;;;;;;;;;;;;;16.23;52.22;102802.31;2062950;28;20377;-55
2023/04/09 02:15:23;;;;;;;;;;;;;;;16.22;52.34;102808.88;2062490;28;20057;-56
2023/04/09 02:16:27;;;;;;;;;;;;;;;16.23;52.12;102802.31;2071188;28;19936;-54
2023/04/09 02:17:28;;;;;;;;;;;;;;;16.24;52.29;102800.34;2069718;28;19929;-56
2023/04/09 02:18:32;;;;;;;;;;;;;;;16.23;52.12;102799.56;2072803;28;19979;-55
2023/04/09 02:19:37;;;;;;;;;;;;;;;16.23;52.10;102794.13;2065551;28;19925;-55
2023/04/09 02:20:40;;;;;;;;;;;;;;;16.23;52.21;102796.84;2066495;28;19973;-56
2023/04/09 02:21:43;;;;;;;;;;;;;;;16.23;52.17;102799.56;2076384;28;19929;-56
2023/04/09 02:22:45;;;;;;;;;;;;;;;16.24;52.20;102792.19;2072764;28;19929;-55
2023/04/09 02:23:47;;;;;;;;;;;;;;;16.23;52.38;102785.94;2072665;28;19930;-56
2023/04/09 02:24:50;;;;;;;;;;;;;;;16.24;52.22;102792.19;2069028;28;19938;-55
2023/04/09 02:25:52;;;;;;;;;;;;;;;16.25;52.20;102791.06;2072023;28;20008;-55
2023/04/09 02:26:55;;;;;;;;;;;;;;;16.24;52.05;102795.72;2070944;28;19926;-61
2023/04/09 02:27:56;;;;;;;;;;;;;;;16.24;52.33;102793.00;2072683;28;19941;-55
2023/04/09 02:28:59;;;;;;;;;;;;;;;16.24;52.17;102795.72;2071818;28;19936;-54
2023/04/09 02:30:02;;;;;;;;;;;;;;;16.24;52.28;102787.53;2073345;28;19929;-56
2023/04/09 02:31:05;;;;;;;;;;;;;;;16.24;52.34;102786.72;2072693;28;19929;-55
2023/04/09 02:32:08;;;;;;;;;;;;;;;16.23;52.39;102785.94;2071894;28;20426;-54
2023/04/09 02:33:10;;;;;;;;;;;;;;;16.24;52.13;102786.72;2070541;28;19937;-55
2023/04/09 02:34:13;;;;;;;;;;;;;;;16.25;52.20;102791.06;2071612;28;19925;-56
2023/04/09 02:35:14;;;;;;;;;;;;;;;16.24;52.07;102793.00;2073227;28;19933;-55
2023/04/09 02:36:17;;;;;;;;;;;;;;;16.24;52.41;102795.72;2072868;28;19933;-54
2023/04/09 02:37:19;;;;;;;;;;;;;;;16.24;52.13;102793.00;2071709;28;19933;-55
2023/04/09 02:38:22;;;;;;;;;;;;;;;16.24;52.33;102794.91;2071906;28;20012;-55
2023/04/09 02:39:24;;;;;;;;;;;;;;;16.24;52.14;102790.25;2072413;28;19925;-55
2023/04/09 02:40:26;;;;;;;;;;;;;;;16.23;52.09;102783.22;2071881;28;20464;-55
2023/04/09 02:41:28;;;;;;;;;;;;;;;16.23;51.89;102788.69;2070904;28;19940;-56
2023/04/09 02:42:31;;;;;;;;;;;;;;;16.24;52.21;102784.00;2071407;28;20389;-55
2023/04/09 02:43:32;;;;;;;;;;;;;;;16.24;52.18;102784.81;2062290;28;19929;-56
2023/04/09 02:44:35;;;;;;;;;;;;;;;16.25;52.33;102791.06;2055041;28;20450;-55
2023/04/09 02:45:37;;;;;;;;;;;;;;;16.25;52.28;102791.06;2065145;28;19930;-56
2023/04/09 02:46:42;;;;;;;;;;;;;;;16.24;52.41;102787.53;2072952;28;20400;-55
2023/04/09 02:47:43;;;;;;;;;;;;;;;16.23;52.20;102785.94;2073274;28;19977;-55
2023/04/09 02:48:46;;;;;;;;;;;;;;;16.24;52.32;102778.56;2063067;28;19930;-55
2023/04/09 02:49:48;;;;;;;;;;;;;;;16.24;52.30;102787.53;2065131;28;19960;-57
2023/04/09 02:50:50;;;;;;;;;;;;;;;16.24;52.48;102784.81;2071745;28;19936;-55
2023/04/09 02:51:52;;;;;;;;;;;;;;;16.24;52.29;102778.56;2071449;28;19976;-55
2023/04/09 02:52:55;;;;;;;;;;;;;;;16.23;52.23;102780.50;2071173;28;19941;-55
2023/04/09 02:53:56;;;;;;;;;;;;;;;16.24;52.32;102773.91;2063142;28;19929;-55
2023/04/09 02:54:59;;;;;;;;;;;;;;;16.24;52.31;102773.09;2063168;28;19930;-54
2023/04/09 02:56:01;;;;;;;;;;;;;;;16.23;52.35;102775.03;2062673;28;20386;-55
2023/04/09 02:57:03;;;;;;;;;;;;;;;16.23;52.35;102769.59;2062854;28;19930;-55
2023/04/09 02:58:05;;;;;;;;;;;;;;;16.24;52.48;102768.47;2073833;28;19926;-55
2023/04/09 02:59:07;;;;;;;;;;;;;;;16.23;52.39;102761.41;2073714;28;19934;-55
2023/04/09 03:00:10;;;;;;;;;;;;;;;16.24;52.37;102773.91;2062845;28;20005;-55
2023/04/09 03:01:13;;;;;;;;;;;;;;;16.24;52.44;102763.00;2056777;28;19949;-56
2023/04/09 03:02:16;;;;;;;;;;;;;;;16.25;52.35;102763.81;2062413;28;19933;-55
2023/04/09 03:03:19;;;;;;;;;;;;;;;16.23;52.21;102761.41;2062853;28;20018;-54
2023/04/09 03:04:20;;;;;;;;;;;;;;;16.24;52.21;102762.19;2070810;28;19975;-55
2023/04/09 03:05:23;;;;;;;;;;;;;;;16.23;52.26;102766.88;2072265;28;19937;-54
2023/04/09 03:06:25;;;;;;;;;;;;;;;16.23;52.39;102764.16;2072667;28;19932;-55
2023/04/09 03:07:28;;;;;;;;;;;;;;;16.25;52.51;102753.69;2063286;28;20102;-55
2023/04/09 03:08:29;;;;;;;;;;;;;;;16.24;52.43;102763.00;2060044;28;19937;-55
2023/04/09 03:09:32;;;;;;;;;;;;;;;16.24;52.35;102767.66;2071568;28;19930;-56
2023/04/09 03:10:33;;;;;;;;;;;;;;;16.24;52.51;102759.47;2072118;28;19926;-55
2023/04/09 03:11:36;;;;;;;;;;;;;;;16.24;52.43;102760.28;2072329;28;19925;-54
2023/04/09 03:12:38;;;;;;;;;;;;;;;16.24;52.32;102763.00;2070831;28;20404;-55
2023/04/09 03:13:40;;;;;;;;;;;;;;;16.24;52.34;102768.47;2072393;28;19929;-55
2023/04/09 03:14:42;;;;;;;;;;;;;;;16.24;52.45;102756.75;2062085;28;19929;-55
2023/04/09 03:15:45;;;;;;;;;;;;;;;16.24;52.24;102762.19;2061739;28;20404;-56
2023/04/09 03:16:46;;;;;;;;;;;;;;;16.23;52.53;102766.88;2068642;28;19940;-54
2023/04/09 03:17:50;;;;;;;;;;;;;;;16.23;52.56;102761.41;2067889;28;19930;-55
2023/04/09 03:18:54;;;;;;;;;;;;;;;16.24;52.62;102757.56;2063342;28;19930;-53
2023/04/09 03:19:57;;;;;;;;;;;;;;;16.24;52.22;102763.00;2060364;28;19930;-55
2023/04/09 03:21:07;;;;;;;;;;;;;;;16.23;52.42;102761.41;2071855;28;19933;-55
2023/04/09 03:22:12;;;;;;;;;;;;;;;16.23;52.31;102764.16;2065779;28;19929;-56
2023/04/09 03:23:14;;;;;;;;;;;;;;;16.24;52.31;102756.75;2058507;28;20381;-55
2023/04/09 03:24:20;;;;;;;;;;;;;;;16.24;52.22;102767.66;2065614;28;20411;-55
2023/04/09 03:25:23;;;;;;;;;;;;;;;16.23;52.30;102753.25;2062929;28;20467;-56
2023/04/09 03:26:34;;;;;;;;;;;;;;;16.23;52.54;102761.41;2062271;28;19934;-55
2023/04/09 03:27:38;;;;;;;;;;;;;;;16.23;52.29;102755.97;2062695;28;19931;-54
2023/04/09 03:28:40;;;;;;;;;;;;;;;16.24;52.57;102760.28;2063248;28;20418;-56
2023/04/09 03:29:42;;;;;;;;;;;;;;;16.23;52.43;102761.41;2067020;28;19930;-56
2023/04/09 03:30:45;;;;;;;;;;;;;;;16.23;52.59;102761.41;2072576;28;20072;-54
2023/04/09 03:31:47;;;;;;;;;;;;;;;16.22;52.50;102754.34;2063131;28;19956;-54
2023/04/09 03:32:51;;;;;;;;;;;;;;;16.23;52.41;102761.41;2063520;28;20038;-55
2023/04/09 03:33:57;;;;;;;;;;;;;;;16.24;52.52;102759.47;2062715;28;19933;-55
2023/04/09 03:35:00;;;;;;;;;;;;;;;16.24;52.66;102756.75;2055440;28;19934;-56
2023/04/09 03:36:02;;;;;;;;;;;;;;;16.23;52.30;102752.44;2058281;28;19930;-56
2023/04/09 03:37:21;;;;;;;;;;;;;;;16.23;52.43;102752.44;2064256;28;19958;-55
2023/04/09 03:38:23;;;;;;;;;;;;;;;16.23;52.52;102753.25;2071397;28;20028;-56
2023/04/09 03:39:29;;;;;;;;;;;;;;;16.23;52.29;102755.97;2063180;28;19936;-53
2023/04/09 03:40:32;;;;;;;;;;;;;;;16.23;52.34;102750.50;2061271;28;20368;-56
2023/04/09 03:41:34;;;;;;;;;;;;;;;16.22;52.52;102751.63;2063867;28;19997;-54
2023/04/09 03:42:42;;;;;;;;;;;;;;;16.23;52.38;102755.97;2063794;28;19938;-55
2023/04/09 03:43:46;;;;;;;;;;;;;;;16.24;52.42;102762.19;2070993;28;19937;-56
2023/04/09 03:44:53;;;;;;;;;;;;;;;16.23;52.52;102755.16;2059145;28;19976;-56
2023/04/09 03:46:12;;;;;;;;;;;;;;;16.23;52.36;102761.41;2064014;28;19968;-54
2023/04/09 03:47:15;;;;;;;;;;;;;;;16.23;52.49;102761.41;2064595;28;19930;-55
2023/04/09 03:48:18;;;;;;;;;;;;;;;16.23;52.40;102753.25;2055201;28;19930;-55
2023/04/09 03:49:21;;;;;;;;;;;;;;;16.22;52.36;102751.63;2063293;28;19972;-55
2023/04/09 03:50:23;;;;;;;;;;;;;;;16.22;52.44;102754.34;2063462;28;20317;-55
2023/04/09 03:51:29;;;;;;;;;;;;;;;16.23;52.50;102758.69;2055071;28;20009;-56
2023/04/09 03:52:32;;;;;;;;;;;;;;;16.23;52.54;102757.88;2063181;28;20348;-55
2023/04/09 03:53:39;;;;;;;;;;;;;;;16.23;52.40;102755.97;2063431;28;20416;-55
2023/04/09 03:54:42;;;;;;;;;;;;;;;16.23;52.66;102760.63;2063984;28;19930;-56
2023/04/09 03:55:50;;;;;;;;;;;;;;;16.23;52.33;102761.41;2068790;28;20337;-56
2023/04/09 03:56:57;;;;;;;;;;;;;;;16.24;52.38;102762.19;2068563;28;20028;-55
2023/04/09 03:58:00;;;;;;;;;;;;;;;16.22;52.36;102754.34;2072202;28;19933;-54
2023/04/09 03:59:05;;;;;;;;;;;;;;;16.23;52.55;102761.41;2072793;28;19973;-55
2023/04/09 04:00:13;;;;;;;;;;;;;;;16.23;52.42;102760.63;2061151;28;19937;-55
2023/04/09 04:01:50;;;;;;;;;;;;;;;16.23;52.34;102761.41;2067392;28;19929;-54
2023/04/09 04:02:53;;;;;;;;;;;;;;;16.24;52.43;102757.56;2067856;28;20359;-54
2023/04/09 04:04:16;;;;;;;;;;;;;;;16.23;52.21;102755.97;2060910;28;19981;-56
2023/04/09 04:05:24;;;;;;;;;;;;;;;16.24;52.41;102756.75;1995713;28;1753947;-54
2023/04/09 04:06:28;;;;;;;;;;;;;;;16.23;52.38;102755.97;2069412;28;19929;-56
2023/04/09 04:08:03;;;;;;;;;;;;;;;16.23;52.59;102755.97;2065829;28;20501;-56
2023/04/09 04:09:05;;;;;;;;;;;;;;;16.23;52.58;102755.97;2071991;28;20016;-55
2023/04/09 04:10:17;;;;;;;;;;;;;;;16.23;52.62;102755.97;2063592;28;19981;-55
2023/04/09 04:11:20;;;;;;;;;;;;;;;16.23;52.38;102755.97;2064629;28;19926;-58
2023/04/09 04:12:27;;;;;;;;;;;;;;;16.23;52.54;102755.16;2063568;28;19968;-55
2023/04/09 04:13:41;;;;;;;;;;;;;;;16.23;52.63;102760.63;2064642;28;19926;-55
2023/04/09 04:14:44;;;;;;;;;;;;;;;16.23;52.35;102755.97;2056754;28;19930;-56
2023/04/09 04:15:56;;;;;;;;;;;;;;;16.23;52.34;102755.97;2062514;28;20401;-55
2023/04/09 04:16:59;;;;;;;;;;;;;;;16.23;52.36;102753.25;2070429;28;19964;-55
2023/04/09 04:18:03;;;;;;;;;;;;;;;16.23;52.51;102755.16;2071643;28;20365;-58
2023/04/09 04:19:18;;;;;;;;;;;;;;;16.22;52.44;102743.44;2069904;28;19926;-56
2023/04/09 04:20:23;;;;;;;;;;;;;;;16.23;52.42;102753.25;2063644;28;19930;-55
2023/04/09 04:21:40;;;;;;;;;;;;;;;16.23;52.48;102750.50;2057440;28;20412;-55
2023/04/09 04:22:41;;;;;;;;;;;;;;;16.24;52.39;102752.09;2066740;28;19930;-56
2023/04/09 04:23:44;;;;;;;;;;;;;;;16.23;52.59;102745.06;2073438;28;20348;-55
2023/04/09 04:24:56;;;;;;;;;;;;;;;16.23;52.84;102750.50;2071180;28;19929;-55
2023/04/09 04:25:59;;;;;;;;;;;;;;;16.23;52.38;102750.50;2063477;28;19934;-54
2023/04/09 04:27:08;;;;;;;;;;;;;;;16.24;52.34;102751.28;2058421;28;20151;-55
2023/04/09 04:28:11;;;;;;;;;;;;;;;16.24;52.44;102748.56;2055387;28;20409;-56
2023/04/09 04:29:15;;;;;;;;;;;;;;;16.24;52.40;102745.84;2063728;28;19937;-58
2023/04/09 04:30:30;;;;;;;;;;;;;;;16.24;52.65;102746.66;2071796;28;19956;-54
2023/04/09 04:31:36;;;;;;;;;;;;;;;16.23;52.39;102753.25;2071951;28;19929;-55
2023/04/09 04:32:39;;;;;;;;;;;;;;;16.24;52.44;102749.38;2063895;28;20004;-55
2023/04/09 04:33:44;;;;;;;;;;;;;;;16.23;52.38;102750.50;2065628;28;20020;-54
2023/04/09 04:34:50;;;;;;;;;;;;;;;16.16;52.38;102744.78;2063458;28;19934;-54
2023/04/09 04:36:05;;;;;;;;;;;;;;;16.24;52.38;102754.81;2057616;28;19988;-55
2023/04/09 04:37:15;;;;;;;;;;;;;;;16.24;52.54;102752.09;2065476;28;19980;-55
2023/04/09 04:38:16;;;;;;;;;;;;;;;16.24;52.63;102754.03;2063857;28;19930;-55
2023/04/09 04:39:20;;;;;;;;;;;;;;;16.23;52.45;102755.97;2066190;28;19934;-56
2023/04/09 04:40:42;;;;;;;;;;;;;;;16.24;52.69;102756.75;2066199;28;19930;-54
2023/04/09 04:41:45;;;;;;;;;;;;;;;16.24;52.57;102757.56;2055797;28;20333;-56
2023/04/09 04:42:51;;;;;;;;;;;;;;;16.24;52.34;102763.00;2066335;28;20020;-55
2023/04/09 04:43:54;;;;;;;;;;;;;;;16.24;52.42;102760.28;2072397;28;19929;-55
2023/04/09 04:44:57;;;;;;;;;;;;;;;16.24;52.61;102760.28;2071840;28;19930;-55
2023/04/09 04:46:19;;;;;;;;;;;;;;;16.23;52.78;102753.25;2072314;28;19929;-56
2023/04/09 04:47:22;;;;;;;;;;;;;;;16.24;52.38;102763.00;2063926;28;20377;-55
2023/04/09 04:48:24;;;;;;;;;;;;;;;16.24;52.40;102756.75;2064011;28;20016;-55
2023/04/09 04:49:26;;;;;;;;;;;;;;;16.24;52.38;102771.19;2072888;28;20004;-54
2023/04/09 04:50:31;;;;;;;;;;;;;;;16.24;52.43;102762.19;2063400;28;19930;-56
2023/04/09 04:51:37;;;;;;;;;;;;;;;16.24;52.59;102765.72;2063933;28;20386;-55
2023/04/09 04:52:43;;;;;;;;;;;;;;;16.23;52.56;102766.88;2064763;28;20448;-55
2023/04/09 04:53:45;;;;;;;;;;;;;;;16.24;52.54;102773.09;2055519;28;20043;-55
2023/04/09 04:54:49;;;;;;;;;;;;;;;16.24;52.56;102773.09;2058302;28;19929;-53
2023/04/09 04:55:56;;;;;;;;;;;;;;;16.25;52.46;102778.22;2071029;28;19934;-55
2023/04/09 04:57:00;;;;;;;;;;;;;;;16.24;52.39;102770.38;2059608;28;19984;-55
2023/04/09 04:58:14;;;;;;;;;;;;;;;16.24;52.45;102775.81;2056906;28;19934;-54
2023/04/09 04:59:23;;;;;;;;;;;;;;;16.23;52.64;102766.88;2064453;28;20025;-54
2023/04/09 05:00:36;;;;;;;;;;;;;;;16.24;52.40;102770.38;2072509;28;19929;-56
2023/04/09 05:01:37;;;;;;;;;;;;;;;16.24;52.83;102771.19;2072842;28;19996;-56
2023/04/09 05:02:44;;;;;;;;;;;;;;;16.24;52.54;102763.00;2064270;28;19937;-55
2023/04/09 05:03:52;;;;;;;;;;;;;;;16.24;52.44;102770.38;2053515;28;19930;-55
2023/04/09 05:05:03;;;;;;;;;;;;;;;16.24;52.60;102768.47;2063775;28;20595;-56
2023/04/09 05:06:13;;;;;;;;;;;;;;;16.25;52.48;102770.03;2062891;28;20020;-56
2023/04/09 05:07:18;;;;;;;;;;;;;;;16.23;52.63;102766.88;2056667;28;20851;-55
2023/04/09 05:08:24;;;;;;;;;;;;;;;16.24;52.40;102768.47;2039703;29;19927;-55
2023/04/09 05:09:29;;;;;;;;;;;;;;;16.24;52.38;102768.47;2047665;28;19931;-54
2023/04/09 05:10:41;;;;;;;;;;;;;;;16.24;52.45;102768.47;2053725;28;19934;-55
2023/04/09 05:11:44;;;;;;;;;;;;;;;16.24;52.38;102773.91;2049637;28;19930;-56
2023/04/09 05:12:52;;;;;;;;;;;;;;;16.24;52.51;102779.34;2052816;28;19926;-54
2023/04/09 05:14:05;;;;;;;;;;;;;;;16.24;52.49;102768.47;2057269;28;19969;-54
2023/04/09 05:15:07;;;;;;;;;;;;;;;16.25;52.55;102769.25;2065710;28;19968;-59
2023/04/09 05:16:16;;;;;;;;;;;;;;;16.25;52.57;102772.75;2065502;28;20415;-54
2023/04/09 05:17:18;;;;;;;;;;;;;;;16.25;52.45;102766.53;2057321;28;19937;-54
2023/04/09 05:18:22;;;;;;;;;;;;;;;16.25;52.38;102766.53;2046970;28;19973;-54
2023/04/09 05:19:24;;;;;;;;;;;;;;;16.24;52.59;102763.00;2055051;28;19937;-55
2023/04/09 05:20:32;;;;;;;;;;;;;;;16.24;52.44;102760.28;2057957;28;19951;-55
2023/04/09 05:21:41;;;;;;;;;;;;;;;16.25;52.64;102769.25;2058515;28;19926;-54
2023/04/09 05:22:44;;;;;;;;;;;;;;;16.25;52.68;102764.59;2056668;28;20366;-54
2023/04/09 05:23:47;;;;;;;;;;;;;;;16.25;52.62;102769.25;2051660;28;19929;-54
2023/04/09 05:24:49;;;;;;;;;;;;;;;16.24;52.55;102757.56;2048683;28;19969;-55
2023/04/09 05:25:52;;;;;;;;;;;;;;;16.25;52.54;102764.59;2063728;28;19930;-55
2023/04/09 05:27:00;;;;;;;;;;;;;;;16.25;52.40;102764.59;2059592;28;19972;-55
2023/04/09 05:28:03;;;;;;;;;;;;;;;16.25;52.61;102772.75;2055746;28;20045;-54
2023/04/09 05:29:08;;;;;;;;;;;;;;;16.25;52.50;102772.75;2046816;28;20314;-55
2023/04/09 05:30:10;;;;;;;;;;;;;;;16.24;52.50;102768.47;2050883;28;20089;-55
2023/04/09 05:31:14;;;;;;;;;;;;;;;16.26;52.39;102766.19;2055512;28;20427;-55